This is the latest recevied weather packets stored in our database for station/object F4IXV-10. If no packets are shown the sender has not sent any weather packets the latest 10 day(s).
| Time | Temp. | Humidity | Pressure | Rain* | Wind** | Luminosity | Snow |
|---|---|---|---|---|---|---|---|
| 1777638936 | 23.33° C | 24% | 996 hPa | - | - | - | - |
| 1777638331 | 23.33° C | 24% | 996 hPa | - | - | - | - |
| 1777637726 | 23.33° C | 24% | 996 hPa | - | - | - | - |
| 1777637121 | 23.33° C | 24% | 996 hPa | - | - | - | - |
| 1777636516 | 22.78° C | 24% | 996 hPa | - | - | - | - |
| 1777635911 | 22.78° C | 24% | 996 hPa | - | - | - | - |
| 1777635306 | 22.78° C | 24% | 996 hPa | - | - | - | - |
| 1777634701 | 23.89° C | 22% | 996 hPa | - | - | - | - |
| 1777634096 | 36.11° C | 12% | 996 hPa | - | - | - | - |
| 1777633491 | 36.11° C | 13% | 996 hPa | - | - | - | - |
| 1777632886 | 36.11° C | 12% | 997 hPa | - | - | - | - |
| 1777632281 | 36.11° C | 13% | 997 hPa | - | - | - | - |
| 1777631676 | 36.11° C | 13% | 997 hPa | - | - | - | - |
| 1777631071 | 36.11° C | 13% | 997 hPa | - | - | - | - |
| 1777630466 | 35.56° C | 13% | 997 hPa | - | - | - | - |
| 1777629861 | 30° C | 17% | 997 hPa | - | - | - | - |
| 1777629256 | 20° C | 26% | 997 hPa | - | - | - | - |
| 1777628651 | 19.44° C | 26% | 997 hPa | - | - | - | - |
| 1777628046 | 18.89° C | 27% | 997 hPa | - | - | - | - |
| 1777627441 | 18.89° C | 27% | 997 hPa | - | - | - | - |
| 1777626836 | 18.33° C | 27% | 997 hPa | - | - | - | - |
| 1777626231 | 17.78° C | 28% | 997 hPa | - | - | - | - |
| 1777625626 | 17.78° C | 28% | 997 hPa | - | - | - | - |
| 1777625021 | 17.22° C | 29% | 997 hPa | - | - | - | - |
| 1777624416 | 16.67° C | 29% | 997 hPa | - | - | - | - |
* Rain since midnight (hover to see other rain measurements)
** Current wind speed in m/s (hover to see current wind gust speed)